This is the latest recevied weather packets stored in our database for station/object IZ6SAC-13. If no packets are shown the sender has not sent any weather packets the latest 10 day(s).
| Time | Temp. | Humidity | Pressure | Rain* | Wind** | Luminosity | Snow |
|---|---|---|---|---|---|---|---|
| 1777412722 | 15.56° C | 79% | 1015.2 hPa | 0 mm | - | - | - |
| 1777411824 | 16.11° C | 78% | 1015.3 hPa | 0 mm | - | - | - |
| 1777411228 | 16.11° C | 78% | 1015.2 hPa | 0 mm | - | - | - |
| 1777410626 | 16.67° C | 77% | 1015.3 hPa | 0 mm | - | - | - |
| 1777410033 | 16.67° C | 77% | 1015.2 hPa | 0 mm | - | - | - |
| 1777409722 | 16.67° C | 78% | 1015.2 hPa | 0 mm | - | - | - |
| 1777409128 | 17.22° C | 75% | 1015.2 hPa | 0 mm | - | - | - |
| 1777407618 | 17.22° C | 75% | 1015.1 hPa | 0 mm | - | - | - |
| 1777406426 | 17.22° C | 75% | 1015.1 hPa | 0 mm | - | - | - |
| 1777405221 | 17.78° C | 74% | 1015 hPa | 0 mm | - | - | - |
| 1777404920 | 17.78° C | 74% | 1015 hPa | 0 mm | - | - | - |
| 1777404320 | 17.78° C | 73% | 1015.1 hPa | 0 mm | - | - | - |
| 1777403724 | 17.78° C | 72% | 1014.9 hPa | 0 mm | - | - | - |
| 1777401930 | 17.78° C | 72% | 1014.5 hPa | 0 mm | - | - | - |
| 1777400135 | 18.33° C | 73% | 1014.4 hPa | 0 mm | - | - | - |
| 1777398319 | 18.33° C | 72% | 1014.4 hPa | 0 mm | - | - | - |
| 1777396522 | 18.89° C | 73% | 1014.4 hPa | 0 mm | - | - | - |
| 1777394726 | 18.33° C | 73% | 1014.4 hPa | 0.51 mm | - | - | - |
| 1777392932 | 17.78° C | 74% | 1014.6 hPa | 0.51 mm | - | - | - |
| 1777391117 | 20° C | 58% | 1015 hPa | 0 mm | - | - | - |
| 1777389322 | 21.67° C | 56% | 1014.5 hPa | 0 mm | - | - | - |
| 1777387527 | 21.67° C | 55% | 1014.5 hPa | 0 mm | - | - | - |
| 1777385731 | 23.89° C | 52% | 1014.6 hPa | 0 mm | - | - | - |
| 1777383935 | 22.22° C | 56% | 1014.8 hPa | 0 mm | - | - | - |
| 1777382121 | 24.44° C | 54% | 1015 hPa | 0 mm | - | - | - |
* Rain latest hour (hover to see other rain measurements)
** Current wind speed in m/s (hover to see current wind gust speed)